sensor_id;sensor_type;location;lat;lon;timestamp;P1;durP1;ratioP1;P2;durP2;ratioP2
13785;SDS011;47474;48.824;9.384;2023-04-08T00:00:53;6.50;;;5.60;;
13785;SDS011;47474;48.824;9.384;2023-04-08T00:03:50;6.83;;;6.13;;
13785;SDS011;47474;48.824;9.384;2023-04-08T00:06:37;7.67;;;5.83;;
13785;SDS011;47474;48.824;9.384;2023-04-08T00:09:25;7.17;;;6.20;;
13785;SDS011;47474;48.824;9.384;2023-04-08T00:12:23;7.03;;;6.33;;
13785;SDS011;47474;48.824;9.384;2023-04-08T00:15:00;7.87;;;6.97;;
13785;SDS011;47474;48.824;9.384;2023-04-08T00:17:57;8.57;;;6.60;;
13785;SDS011;47474;48.824;9.384;2023-04-08T00:20:45;7.13;;;6.43;;
13785;SDS011;47474;48.824;9.384;2023-04-08T00:23:33;6.93;;;6.30;;
13785;SDS011;47474;48.824;9.384;2023-04-08T00:26:22;6.47;;;5.40;;
13785;SDS011;47474;48.824;9.384;2023-04-08T00:29:04;7.30;;;6.33;;
13785;SDS011;47474;48.824;9.384;2023-04-08T00:31:49;7.97;;;6.60;;
13785;SDS011;47474;48.824;9.384;2023-04-08T00:34:41;8.17;;;7.33;;
13785;SDS011;47474;48.824;9.384;2023-04-08T00:37:44;10.10;;;8.07;;
13785;SDS011;47474;48.824;9.384;2023-04-08T00:40:29;8.77;;;7.10;;
13785;SDS011;47474;48.824;9.384;2023-04-08T00:43:50;7.87;;;7.03;;
13785;SDS011;47474;48.824;9.384;2023-04-08T00:46:18;9.53;;;7.47;;
13785;SDS011;47474;48.824;9.384;2023-04-08T00:49:06;9.07;;;8.17;;
13785;SDS011;47474;48.824;9.384;2023-04-08T00:51:59;9.13;;;7.63;;
13785;SDS011;47474;48.824;9.384;2023-04-08T00:54:41;10.00;;;8.47;;
13785;SDS011;47474;48.824;9.384;2023-04-08T00:57:30;9.07;;;7.83;;
13785;SDS011;47474;48.824;9.384;2023-04-08T01:00:15;8.80;;;7.13;;
13785;SDS011;47474;48.824;9.384;2023-04-08T01:03:01;9.10;;;7.83;;
13785;SDS011;47474;48.824;9.384;2023-04-08T01:06:05;8.80;;;7.50;;
13785;SDS011;47474;48.824;9.384;2023-04-08T01:08:55;10.00;;;8.30;;
13785;SDS011;47474;48.824;9.384;2023-04-08T01:11:54;10.30;;;8.47;;
13785;SDS011;47474;48.824;9.384;2023-04-08T01:14:37;9.67;;;8.67;;
13785;SDS011;47474;48.824;9.384;2023-04-08T01:17:17;9.23;;;8.03;;
13785;SDS011;47474;48.824;9.384;2023-04-08T01:19:53;9.40;;;7.73;;
13785;SDS011;47474;48.824;9.384;2023-04-08T01:22:49;10.87;;;8.40;;
13785;SDS011;47474;48.824;9.384;2023-04-08T01:25:38;12.20;;;9.27;;
13785;SDS011;47474;48.824;9.384;2023-04-08T01:31:17;9.33;;;8.13;;
13785;SDS011;47474;48.824;9.384;2023-04-08T01:34:01;10.67;;;9.07;;
13785;SDS011;47474;48.824;9.384;2023-04-08T01:36:52;11.60;;;8.20;;
13785;SDS011;47474;48.824;9.384;2023-04-08T01:39:40;12.03;;;9.80;;
13785;SDS011;47474;48.824;9.384;2023-04-08T01:42:46;9.83;;;8.50;;
13785;SDS011;47474;48.824;9.384;2023-04-08T01:45:44;10.10;;;9.00;;
13785;SDS011;47474;48.824;9.384;2023-04-08T01:48:20;9.43;;;8.40;;
13785;SDS011;47474;48.824;9.384;2023-04-08T01:50:49;9.73;;;8.73;;
13785;SDS011;47474;48.824;9.384;2023-04-08T01:53:36;11.23;;;8.90;;
13785;SDS011;47474;48.824;9.384;2023-04-08T01:56:29;10.50;;;9.00;;
13785;SDS011;47474;48.824;9.384;2023-04-08T01:59:24;10.50;;;8.53;;
13785;SDS011;47474;48.824;9.384;2023-04-08T02:02:02;10.53;;;9.13;;
13785;SDS011;47474;48.824;9.384;2023-04-08T02:04:50;10.70;;;8.80;;
13785;SDS011;47474;48.824;9.384;2023-04-08T02:07:36;10.50;;;9.40;;
13785;SDS011;47474;48.824;9.384;2023-04-08T02:10:18;11.13;;;9.90;;
13785;SDS011;47474;48.824;9.384;2023-04-08T02:13:01;12.13;;;9.60;;
13785;SDS011;47474;48.824;9.384;2023-04-08T02:15:51;14.40;;;10.83;;
13785;SDS011;47474;48.824;9.384;2023-04-08T02:18:44;12.70;;;9.87;;
13785;SDS011;47474;48.824;9.384;2023-04-08T02:21:45;12.27;;;10.20;;
13785;SDS011;47474;48.824;9.384;2023-04-08T02:24:28;12.90;;;10.53;;
13785;SDS011;47474;48.824;9.384;2023-04-08T02:27:53;13.73;;;11.00;;
13785;SDS011;47474;48.824;9.384;2023-04-08T02:30:14;12.43;;;10.53;;
13785;SDS011;47474;48.824;9.384;2023-04-08T02:32:49;13.97;;;11.73;;
13785;SDS011;47474;48.824;9.384;2023-04-08T02:35:52;13.50;;;10.97;;
13785;SDS011;47474;48.824;9.384;2023-04-08T02:38:40;11.20;;;9.57;;
13785;SDS011;47474;48.824;9.384;2023-04-08T02:41:37;12.27;;;10.13;;
13785;SDS011;47474;48.824;9.384;2023-04-08T02:44:27;11.50;;;10.30;;
13785;SDS011;47474;48.824;9.384;2023-04-08T02:47:22;12.90;;;10.87;;
13785;SDS011;47474;48.824;9.384;2023-04-08T02:50:02;11.83;;;10.50;;
13785;SDS011;47474;48.824;9.384;2023-04-08T02:52:49;13.07;;;10.23;;
13785;SDS011;47474;48.824;9.384;2023-04-08T02:55:22;14.17;;;10.90;;
13785;SDS011;47474;48.824;9.384;2023-04-08T02:58:05;14.07;;;11.03;;
13785;SDS011;47474;48.824;9.384;2023-04-08T03:00:41;14.00;;;10.93;;
13785;SDS011;47474;48.824;9.384;2023-04-08T03:03:40;13.47;;;11.37;;
13785;SDS011;47474;48.824;9.384;2023-04-08T03:06:23;14.07;;;11.60;;
13785;SDS011;47474;48.824;9.384;2023-04-08T03:08:52;14.80;;;11.60;;
13785;SDS011;47474;48.824;9.384;2023-04-08T03:11:18;12.97;;;11.43;;
13785;SDS011;47474;48.824;9.384;2023-04-08T03:13:45;13.73;;;11.13;;
13785;SDS011;47474;48.824;9.384;2023-04-08T03:16:12;14.73;;;11.77;;
13785;SDS011;47474;48.824;9.384;2023-04-08T03:18:38;13.37;;;11.30;;
13785;SDS011;47474;48.824;9.384;2023-04-08T03:21:05;13.90;;;11.10;;
13785;SDS011;47474;48.824;9.384;2023-04-08T03:23:31;14.30;;;11.67;;
13785;SDS011;47474;48.824;9.384;2023-04-08T03:25:59;16.10;;;12.20;;
13785;SDS011;47474;48.824;9.384;2023-04-08T03:28:26;13.73;;;11.63;;
13785;SDS011;47474;48.824;9.384;2023-04-08T03:30:52;14.23;;;11.23;;
13785;SDS011;47474;48.824;9.384;2023-04-08T03:33:19;14.67;;;12.40;;
13785;SDS011;47474;48.824;9.384;2023-04-08T03:35:45;13.70;;;11.27;;
13785;SDS011;47474;48.824;9.384;2023-04-08T03:38:12;14.20;;;11.17;;
13785;SDS011;47474;48.824;9.384;2023-04-08T03:40:38;14.73;;;11.40;;
13785;SDS011;47474;48.824;9.384;2023-04-08T03:43:06;14.13;;;11.00;;
13785;SDS011;47474;48.824;9.384;2023-04-08T03:45:32;14.43;;;11.63;;
13785;SDS011;47474;48.824;9.384;2023-04-08T03:47:59;13.67;;;11.23;;
13785;SDS011;47474;48.824;9.384;2023-04-08T03:50:26;14.63;;;12.13;;
13785;SDS011;47474;48.824;9.384;2023-04-08T03:52:52;15.30;;;11.77;;
13785;SDS011;47474;48.824;9.384;2023-04-08T03:55:19;15.53;;;11.70;;
13785;SDS011;47474;48.824;9.384;2023-04-08T03:57:45;14.50;;;11.70;;
13785;SDS011;47474;48.824;9.384;2023-04-08T04:00:13;12.23;;;11.03;;
13785;SDS011;47474;48.824;9.384;2023-04-08T04:02:40;13.93;;;11.60;;
13785;SDS011;47474;48.824;9.384;2023-04-08T04:05:07;16.20;;;12.03;;
13785;SDS011;47474;48.824;9.384;2023-04-08T04:07:33;13.93;;;11.17;;
13785;SDS011;47474;48.824;9.384;2023-04-08T04:10:00;16.83;;;12.40;;
13785;SDS011;47474;48.824;9.384;2023-04-08T04:12:26;14.03;;;11.50;;
13785;SDS011;47474;48.824;9.384;2023-04-08T04:14:53;15.90;;;12.37;;
13785;SDS011;47474;48.824;9.384;2023-04-08T04:17:21;14.70;;;11.90;;
13785;SDS011;47474;48.824;9.384;2023-04-08T04:19:47;14.90;;;11.70;;
13785;SDS011;47474;48.824;9.384;2023-04-08T04:22:14;14.53;;;11.80;;
13785;SDS011;47474;48.824;9.384;2023-04-08T04:24:40;15.40;;;12.50;;
13785;SDS011;47474;48.824;9.384;2023-04-08T04:27:07;15.67;;;12.13;;
13785;SDS011;47474;48.824;9.384;2023-04-08T04:29:33;14.93;;;11.40;;
13785;SDS011;47474;48.824;9.384;2023-04-08T04:32:00;14.57;;;11.53;;
13785;SDS011;47474;48.824;9.384;2023-04-08T04:34:27;14.73;;;11.97;;
13785;SDS011;47474;48.824;9.384;2023-04-08T04:36:54;14.80;;;11.67;;
13785;SDS011;47474;48.824;9.384;2023-04-08T04:39:20;13.73;;;10.87;;
13785;SDS011;47474;48.824;9.384;2023-04-08T04:41:47;14.10;;;12.50;;
13785;SDS011;47474;48.824;9.384;2023-04-08T04:44:13;14.17;;;10.77;;
13785;SDS011;47474;48.824;9.384;2023-04-08T04:46:40;14.53;;;11.60;;
13785;SDS011;47474;48.824;9.384;2023-04-08T04:49:06;12.03;;;10.33;;
13785;SDS011;47474;48.824;9.384;2023-04-08T04:51:34;13.83;;;11.10;;
13785;SDS011;47474;48.824;9.384;2023-04-08T04:54:01;13.97;;;11.97;;
13785;SDS011;47474;48.824;9.384;2023-04-08T04:56:28;15.97;;;11.83;;
13785;SDS011;47474;48.824;9.384;2023-04-08T04:58:54;16.60;;;12.40;;
13785;SDS011;47474;48.824;9.384;2023-04-08T05:01:21;16.50;;;12.83;;
13785;SDS011;47474;48.824;9.384;2023-04-08T05:03:47;15.60;;;11.70;;
13785;SDS011;47474;48.824;9.384;2023-04-08T05:06:14;18.07;;;12.40;;
13785;SDS011;47474;48.824;9.384;2023-04-08T05:08:41;15.03;;;12.07;;
13785;SDS011;47474;48.824;9.384;2023-04-08T05:11:08;15.30;;;11.93;;
13785;SDS011;47474;48.824;9.384;2023-04-08T05:13:35;16.07;;;11.93;;
13785;SDS011;47474;48.824;9.384;2023-04-08T05:16:01;17.77;;;11.63;;
13785;SDS011;47474;48.824;9.384;2023-04-08T05:18:28;15.70;;;12.47;;
13785;SDS011;47474;48.824;9.384;2023-04-08T05:20:54;18.40;;;12.90;;
13785;SDS011;47474;48.824;9.384;2023-04-08T05:23:21;16.70;;;12.33;;
13785;SDS011;47474;48.824;9.384;2023-04-08T05:25:48;17.43;;;12.93;;
13785;SDS011;47474;48.824;9.384;2023-04-08T05:28:15;16.03;;;12.70;;
13785;SDS011;47474;48.824;9.384;2023-04-08T05:30:41;17.70;;;12.97;;
13785;SDS011;47474;48.824;9.384;2023-04-08T05:33:08;15.83;;;12.57;;
13785;SDS011;47474;48.824;9.384;2023-04-08T05:35:34;17.70;;;13.03;;
13785;SDS011;47474;48.824;9.384;2023-04-08T05:38:01;16.63;;;12.37;;
13785;SDS011;47474;48.824;9.384;2023-04-08T05:40:27;18.00;;;12.80;;
13785;SDS011;47474;48.824;9.384;2023-04-08T05:42:55;18.33;;;13.73;;
13785;SDS011;47474;48.824;9.384;2023-04-08T05:45:22;16.57;;;13.07;;
13785;SDS011;47474;48.824;9.384;2023-04-08T05:47:48;14.87;;;12.20;;
13785;SDS011;47474;48.824;9.384;2023-04-08T05:50:15;17.13;;;13.37;;
13785;SDS011;47474;48.824;9.384;2023-04-08T05:52:42;17.63;;;12.70;;
13785;SDS011;47474;48.824;9.384;2023-04-08T05:55:09;15.43;;;12.43;;
13785;SDS011;47474;48.824;9.384;2023-04-08T05:57:36;14.67;;;11.97;;
13785;SDS011;47474;48.824;9.384;2023-04-08T06:00:05;16.00;;;11.93;;
13785;SDS011;47474;48.824;9.384;2023-04-08T06:02:33;14.87;;;11.80;;
13785;SDS011;47474;48.824;9.384;2023-04-08T06:04:59;16.63;;;12.03;;
13785;SDS011;47474;48.824;9.384;2023-04-08T06:07:26;13.10;;;11.20;;
13785;SDS011;47474;48.824;9.384;2023-04-08T06:09:53;15.40;;;11.73;;
13785;SDS011;47474;48.824;9.384;2023-04-08T06:12:19;14.40;;;11.73;;
13785;SDS011;47474;48.824;9.384;2023-04-08T06:14:46;17.00;;;12.33;;
13785;SDS011;47474;48.824;9.384;2023-04-08T06:17:13;15.50;;;12.20;;
13785;SDS011;47474;48.824;9.384;2023-04-08T06:19:40;15.80;;;11.90;;
13785;SDS011;47474;48.824;9.384;2023-04-08T06:22:06;16.00;;;12.43;;
13785;SDS011;47474;48.824;9.384;2023-04-08T06:24:33;15.30;;;12.13;;
13785;SDS011;47474;48.824;9.384;2023-04-08T06:26:59;15.53;;;11.87;;
13785;SDS011;47474;48.824;9.384;2023-04-08T06:29:26;15.77;;;12.17;;
13785;SDS011;47474;48.824;9.384;2023-04-08T06:31:54;16.30;;;12.43;;
13785;SDS011;47474;48.824;9.384;2023-04-08T06:34:21;13.80;;;11.57;;
13785;SDS011;47474;48.824;9.384;2023-04-08T06:36:48;15.47;;;11.43;;
13785;SDS011;47474;48.824;9.384;2023-04-08T06:39:15;14.10;;;11.20;;
13785;SDS011;47474;48.824;9.384;2023-04-08T06:41:46;15.63;;;12.27;;
13785;SDS011;47474;48.824;9.384;2023-04-08T06:44:12;13.20;;;10.40;;
13785;SDS011;47474;48.824;9.384;2023-04-08T06:46:39;14.03;;;11.53;;
13785;SDS011;47474;48.824;9.384;2023-04-08T06:49:06;14.97;;;11.43;;
13785;SDS011;47474;48.824;9.384;2023-04-08T06:51:34;14.97;;;10.90;;
13785;SDS011;47474;48.824;9.384;2023-04-08T06:54:00;16.70;;;12.17;;
13785;SDS011;47474;48.824;9.384;2023-04-08T06:56:27;15.33;;;12.77;;
13785;SDS011;47474;48.824;9.384;2023-04-08T06:58:53;16.63;;;12.93;;
13785;SDS011;47474;48.824;9.384;2023-04-08T07:01:20;15.47;;;11.23;;
13785;SDS011;47474;48.824;9.384;2023-04-08T07:03:46;17.53;;;12.17;;
13785;SDS011;47474;48.824;9.384;2023-04-08T07:06:13;16.67;;;13.73;;
13785;SDS011;47474;48.824;9.384;2023-04-08T07:08:40;17.87;;;13.27;;
13785;SDS011;47474;48.824;9.384;2023-04-08T07:11:07;15.00;;;12.00;;
13785;SDS011;47474;48.824;9.384;2023-04-08T07:13:33;17.60;;;12.47;;
13785;SDS011;47474;48.824;9.384;2023-04-08T07:16:00;14.40;;;11.77;;
13785;SDS011;47474;48.824;9.384;2023-04-08T07:18:26;13.83;;;11.60;;
13785;SDS011;47474;48.824;9.384;2023-04-08T07:20:53;16.17;;;13.20;;
13785;SDS011;47474;48.824;9.384;2023-04-08T07:23:19;15.20;;;11.97;;
13785;SDS011;47474;48.824;9.384;2023-04-08T07:25:47;17.73;;;12.67;;
13785;SDS011;47474;48.824;9.384;2023-04-08T07:28:14;17.80;;;13.00;;
13785;SDS011;47474;48.824;9.384;2023-04-08T07:30:40;15.10;;;12.47;;
13785;SDS011;47474;48.824;9.384;2023-04-08T07:33:07;15.03;;;12.47;;
13785;SDS011;47474;48.824;9.384;2023-04-08T07:35:33;16.17;;;11.83;;
13785;SDS011;47474;48.824;9.384;2023-04-08T07:38:00;17.00;;;12.60;;
13785;SDS011;47474;48.824;9.384;2023-04-08T07:40:26;14.47;;;12.70;;
13785;SDS011;47474;48.824;9.384;2023-04-08T07:42:55;14.30;;;11.70;;
13785;SDS011;47474;48.824;9.384;2023-04-08T07:45:21;15.57;;;12.87;;
13785;SDS011;47474;48.824;9.384;2023-04-08T07:47:48;15.37;;;12.77;;
13785;SDS011;47474;48.824;9.384;2023-04-08T07:50:14;14.80;;;11.87;;
13785;SDS011;47474;48.824;9.384;2023-04-08T07:52:41;16.13;;;12.63;;
13785;SDS011;47474;48.824;9.384;2023-04-08T07:55:08;15.47;;;12.73;;
13785;SDS011;47474;48.824;9.384;2023-04-08T07:57:34;14.87;;;12.77;;
13785;SDS011;47474;48.824;9.384;2023-04-08T08:00:03;15.70;;;13.67;;
13785;SDS011;47474;48.824;9.384;2023-04-08T08:02:29;17.33;;;13.17;;
13785;SDS011;47474;48.824;9.384;2023-04-08T08:04:56;17.40;;;13.27;;
13785;SDS011;47474;48.824;9.384;2023-04-08T08:07:22;17.90;;;13.00;;
13785;SDS011;47474;48.824;9.384;2023-04-08T08:09:49;16.97;;;14.00;;
13785;SDS011;47474;48.824;9.384;2023-04-08T08:12:15;15.20;;;13.20;;
13785;SDS011;47474;48.824;9.384;2023-04-08T08:14:42;14.67;;;11.97;;
13785;SDS011;47474;48.824;9.384;2023-04-08T08:17:10;15.10;;;13.30;;
13785;SDS011;47474;48.824;9.384;2023-04-08T08:19:36;14.47;;;12.20;;
13785;SDS011;47474;48.824;9.384;2023-04-08T08:22:03;14.93;;;12.37;;
13785;SDS011;47474;48.824;9.384;2023-04-08T08:24:29;13.20;;;11.80;;
13785;SDS011;47474;48.824;9.384;2023-04-08T08:26:56;15.83;;;13.07;;
13785;SDS011;47474;48.824;9.384;2023-04-08T08:29:22;15.43;;;12.40;;
13785;SDS011;47474;48.824;9.384;2023-04-08T08:31:49;13.27;;;11.33;;
13785;SDS011;47474;48.824;9.384;2023-04-08T08:34:17;16.33;;;13.20;;
13785;SDS011;47474;48.824;9.384;2023-04-08T08:36:44;15.03;;;12.40;;
13785;SDS011;47474;48.824;9.384;2023-04-08T08:39:10;17.90;;;13.47;;
13785;SDS011;47474;48.824;9.384;2023-04-08T08:41:37;14.50;;;12.97;;
13785;SDS011;47474;48.824;9.384;2023-04-08T08:44:05;14.77;;;12.03;;
13785;SDS011;47474;48.824;9.384;2023-04-08T08:46:32;16.97;;;12.73;;
13785;SDS011;47474;48.824;9.384;2023-04-08T08:48:59;14.37;;;12.87;;
13785;SDS011;47474;48.824;9.384;2023-04-08T08:51:27;14.80;;;12.83;;
13785;SDS011;47474;48.824;9.384;2023-04-08T08:53:53;14.40;;;12.90;;
13785;SDS011;47474;48.824;9.384;2023-04-08T08:56:20;14.00;;;12.23;;
13785;SDS011;47474;48.824;9.384;2023-04-08T08:58:47;14.20;;;12.70;;
13785;SDS011;47474;48.824;9.384;2023-04-08T09:01:29;13.87;;;11.70;;
13785;SDS011;47474;48.824;9.384;2023-04-08T09:04:06;13.10;;;11.67;;
13785;SDS011;47474;48.824;9.384;2023-04-08T09:06:35;13.90;;;12.40;;
13785;SDS011;47474;48.824;9.384;2023-04-08T09:09:02;13.67;;;12.17;;
13785;SDS011;47474;48.824;9.384;2023-04-08T09:11:30;12.40;;;11.10;;
13785;SDS011;47474;48.824;9.384;2023-04-08T09:13:57;13.13;;;11.83;;
13785;SDS011;47474;48.824;9.384;2023-04-08T09:16:23;13.27;;;11.60;;
13785;SDS011;47474;48.824;9.384;2023-04-08T09:18:50;12.17;;;10.87;;
13785;SDS011;47474;48.824;9.384;2023-04-08T09:21:17;13.93;;;11.93;;
13785;SDS011;47474;48.824;9.384;2023-04-08T09:23:50;11.93;;;10.73;;
13785;SDS011;47474;48.824;9.384;2023-04-08T09:26:17;13.70;;;11.80;;
13785;SDS011;47474;48.824;9.384;2023-04-08T09:28:56;11.50;;;10.23;;
13785;SDS011;47474;48.824;9.384;2023-04-08T09:31:24;12.53;;;10.73;;
13785;SDS011;47474;48.824;9.384;2023-04-08T09:33:52;12.00;;;10.77;;
13785;SDS011;47474;48.824;9.384;2023-04-08T09:36:20;11.63;;;9.60;;
13785;SDS011;47474;48.824;9.384;2023-04-08T09:38:47;11.57;;;10.37;;
13785;SDS011;47474;48.824;9.384;2023-04-08T09:41:16;12.73;;;10.50;;
13785;SDS011;47474;48.824;9.384;2023-04-08T09:43:46;11.90;;;10.57;;
13785;SDS011;47474;48.824;9.384;2023-04-08T09:46:14;12.30;;;10.37;;
13785;SDS011;47474;48.824;9.384;2023-04-08T09:48:48;10.83;;;9.70;;
13785;SDS011;47474;48.824;9.384;2023-04-08T09:51:17;11.27;;;10.17;;
13785;SDS011;47474;48.824;9.384;2023-04-08T09:53:46;11.17;;;10.00;;
13785;SDS011;47474;48.824;9.384;2023-04-08T09:56:13;12.47;;;10.20;;
13785;SDS011;47474;48.824;9.384;2023-04-08T09:58:44;12.37;;;11.07;;
13785;SDS011;47474;48.824;9.384;2023-04-08T10:01:18;12.00;;;10.80;;
13785;SDS011;47474;48.824;9.384;2023-04-08T10:03:51;12.90;;;10.50;;
13785;SDS011;47474;48.824;9.384;2023-04-08T10:06:21;10.87;;;9.77;;
13785;SDS011;47474;48.824;9.384;2023-04-08T10:08:52;10.10;;;8.87;;
13785;SDS011;47474;48.824;9.384;2023-04-08T10:11:21;11.37;;;10.17;;
13785;SDS011;47474;48.824;9.384;2023-04-08T10:13:48;10.07;;;9.07;;
13785;SDS011;47474;48.824;9.384;2023-04-08T10:16:18;11.90;;;10.57;;
13785;SDS011;47474;48.824;9.384;2023-04-08T10:18:47;10.67;;;9.57;;
13785;SDS011;47474;48.824;9.384;2023-04-08T10:21:32;12.37;;;9.97;;
13785;SDS011;47474;48.824;9.384;2023-04-08T10:24:00;11.03;;;9.10;;
13785;SDS011;47474;48.824;9.384;2023-04-08T10:26:33;10.77;;;9.53;;
13785;SDS011;47474;48.824;9.384;2023-04-08T10:31:55;11.47;;;8.90;;
13785;SDS011;47474;48.824;9.384;2023-04-08T10:34:22;10.30;;;9.03;;
13785;SDS011;47474;48.824;9.384;2023-04-08T10:36:50;9.33;;;8.43;;
13785;SDS011;47474;48.824;9.384;2023-04-08T10:39:20;10.53;;;8.23;;
13785;SDS011;47474;48.824;9.384;2023-04-08T10:41:49;9.73;;;8.63;;
13785;SDS011;47474;48.824;9.384;2023-04-08T10:44:15;10.50;;;8.20;;
13785;SDS011;47474;48.824;9.384;2023-04-08T10:46:42;9.67;;;8.50;;
13785;SDS011;47474;48.824;9.384;2023-04-08T10:49:10;8.67;;;7.47;;
13785;SDS011;47474;48.824;9.384;2023-04-08T10:51:36;8.83;;;7.87;;
13785;SDS011;47474;48.824;9.384;2023-04-08T10:54:06;10.37;;;8.43;;
13785;SDS011;47474;48.824;9.384;2023-04-08T10:56:34;9.10;;;7.40;;
13785;SDS011;47474;48.824;9.384;2023-04-08T10:59:03;10.03;;;7.60;;
13785;SDS011;47474;48.824;9.384;2023-04-08T11:01:37;8.33;;;7.20;;
13785;SDS011;47474;48.824;9.384;2023-04-08T11:04:06;8.93;;;8.03;;
13785;SDS011;47474;48.824;9.384;2023-04-08T11:06:37;9.63;;;7.80;;
13785;SDS011;47474;48.824;9.384;2023-04-08T11:09:04;10.37;;;7.60;;
13785;SDS011;47474;48.824;9.384;2023-04-08T11:11:30;8.23;;;7.43;;
13785;SDS011;47474;48.824;9.384;2023-04-08T11:13:57;9.13;;;7.23;;
13785;SDS011;47474;48.824;9.384;2023-04-08T11:16:25;9.20;;;7.10;;
13785;SDS011;47474;48.824;9.384;2023-04-08T11:18:53;10.63;;;7.50;;
13785;SDS011;47474;48.824;9.384;2023-04-08T11:21:22;7.33;;;6.57;;
13785;SDS011;47474;48.824;9.384;2023-04-08T11:23:48;7.63;;;6.63;;
13785;SDS011;47474;48.824;9.384;2023-04-08T11:26:15;8.70;;;7.40;;
13785;SDS011;47474;48.824;9.384;2023-04-08T11:28:42;7.43;;;6.43;;
13785;SDS011;47474;48.824;9.384;2023-04-08T11:31:09;7.80;;;6.60;;
13785;SDS011;47474;48.824;9.384;2023-04-08T11:33:40;7.87;;;6.87;;
13785;SDS011;47474;48.824;9.384;2023-04-08T11:36:10;8.60;;;6.90;;
13785;SDS011;47474;48.824;9.384;2023-04-08T11:38:38;8.30;;;5.90;;
13785;SDS011;47474;48.824;9.384;2023-04-08T11:41:05;6.17;;;5.57;;
13785;SDS011;47474;48.824;9.384;2023-04-08T11:43:32;8.77;;;6.93;;
13785;SDS011;47474;48.824;9.384;2023-04-08T11:46:06;7.97;;;6.07;;
13785;SDS011;47474;48.824;9.384;2023-04-08T11:48:34;7.50;;;6.30;;
13785;SDS011;47474;48.824;9.384;2023-04-08T11:51:04;7.23;;;6.53;;
13785;SDS011;47474;48.824;9.384;2023-04-08T11:53:33;7.73;;;6.10;;
13785;SDS011;47474;48.824;9.384;2023-04-08T11:56:14;9.13;;;7.13;;
13785;SDS011;47474;48.824;9.384;2023-04-08T11:58:42;7.13;;;6.43;;
13785;SDS011;47474;48.824;9.384;2023-04-08T12:01:09;9.03;;;6.80;;
13785;SDS011;47474;48.824;9.384;2023-04-08T12:03:35;6.90;;;6.10;;
13785;SDS011;47474;48.824;9.384;2023-04-08T12:06:03;7.03;;;6.33;;
13785;SDS011;47474;48.824;9.384;2023-04-08T12:08:31;7.20;;;6.30;;
13785;SDS011;47474;48.824;9.384;2023-04-08T12:10:58;7.80;;;7.00;;
13785;SDS011;47474;48.824;9.384;2023-04-08T12:13:25;8.10;;;6.43;;
13785;SDS011;47474;48.824;9.384;2023-04-08T12:15:51;7.73;;;6.93;;
13785;SDS011;47474;48.824;9.384;2023-04-08T12:18:18;7.67;;;6.23;;
13785;SDS011;47474;48.824;9.384;2023-04-08T12:20:45;8.17;;;7.17;;
13785;SDS011;47474;48.824;9.384;2023-04-08T12:23:12;8.87;;;6.70;;
13785;SDS011;47474;48.824;9.384;2023-04-08T12:25:39;9.20;;;7.03;;
13785;SDS011;47474;48.824;9.384;2023-04-08T12:28:06;8.50;;;7.17;;
13785;SDS011;47474;48.824;9.384;2023-04-08T12:30:33;8.37;;;6.60;;
13785;SDS011;47474;48.824;9.384;2023-04-08T12:33:00;8.47;;;7.20;;
13785;SDS011;47474;48.824;9.384;2023-04-08T12:35:27;11.50;;;7.60;;
13785;SDS011;47474;48.824;9.384;2023-04-08T12:37:53;8.63;;;7.30;;
13785;SDS011;47474;48.824;9.384;2023-04-08T12:40:22;8.00;;;7.13;;
13785;SDS011;47474;48.824;9.384;2023-04-08T12:42:48;9.70;;;7.80;;
13785;SDS011;47474;48.824;9.384;2023-04-08T12:45:15;7.63;;;6.93;;
13785;SDS011;47474;48.824;9.384;2023-04-08T12:47:42;8.70;;;7.13;;
13785;SDS011;47474;48.824;9.384;2023-04-08T12:50:08;8.57;;;7.67;;
13785;SDS011;47474;48.824;9.384;2023-04-08T12:52:35;8.83;;;6.73;;
13785;SDS011;47474;48.824;9.384;2023-04-08T12:55:02;7.60;;;6.80;;
13785;SDS011;47474;48.824;9.384;2023-04-08T12:57:30;8.63;;;7.17;;
13785;SDS011;47474;48.824;9.384;2023-04-08T12:59:56;9.63;;;7.93;;
13785;SDS011;47474;48.824;9.384;2023-04-08T13:02:23;8.33;;;7.27;;
13785;SDS011;47474;48.824;9.384;2023-04-08T13:04:51;9.57;;;7.60;;
13785;SDS011;47474;48.824;9.384;2023-04-08T13:07:19;9.30;;;7.63;;
13785;SDS011;47474;48.824;9.384;2023-04-08T13:09:45;8.73;;;7.53;;
13785;SDS011;47474;48.824;9.384;2023-04-08T13:12:12;8.83;;;7.80;;
13785;SDS011;47474;48.824;9.384;2023-04-08T13:14:41;9.70;;;8.10;;
13785;SDS011;47474;48.824;9.384;2023-04-08T13:17:08;7.33;;;6.63;;
13785;SDS011;47474;48.824;9.384;2023-04-08T13:19:34;9.03;;;7.33;;
13785;SDS011;47474;48.824;9.384;2023-04-08T13:22:01;8.33;;;7.53;;
13785;SDS011;47474;48.824;9.384;2023-04-08T13:24:27;7.83;;;7.03;;
13785;SDS011;47474;48.824;9.384;2023-04-08T13:26:54;9.40;;;7.37;;
13785;SDS011;47474;48.824;9.384;2023-04-08T13:29:21;9.63;;;7.77;;
13785;SDS011;47474;48.824;9.384;2023-04-08T13:31:49;8.87;;;7.53;;
13785;SDS011;47474;48.824;9.384;2023-04-08T13:34:17;7.67;;;6.80;;
13785;SDS011;47474;48.824;9.384;2023-04-08T13:36:43;8.77;;;7.83;;
13785;SDS011;47474;48.824;9.384;2023-04-08T13:39:10;9.03;;;8.07;;
13785;SDS011;47474;48.824;9.384;2023-04-08T13:41:36;8.00;;;7.20;;
13785;SDS011;47474;48.824;9.384;2023-04-08T13:44:03;9.07;;;6.70;;
13785;SDS011;47474;48.824;9.384;2023-04-08T13:46:31;10.20;;;7.27;;
13785;SDS011;47474;48.824;9.384;2023-04-08T13:48:59;8.33;;;7.20;;
13785;SDS011;47474;48.824;9.384;2023-04-08T13:51:27;9.03;;;7.67;;
13785;SDS011;47474;48.824;9.384;2023-04-08T13:53:53;8.00;;;7.13;;
13785;SDS011;47474;48.824;9.384;2023-04-08T13:56:20;9.17;;;7.53;;
13785;SDS011;47474;48.824;9.384;2023-04-08T13:58:46;8.13;;;7.33;;
13785;SDS011;47474;48.824;9.384;2023-04-08T14:01:13;8.07;;;7.03;;
13785;SDS011;47474;48.824;9.384;2023-04-08T14:03:39;7.90;;;6.47;;
13785;SDS011;47474;48.824;9.384;2023-04-08T14:06:07;6.73;;;6.03;;
13785;SDS011;47474;48.824;9.384;2023-04-08T14:08:34;6.93;;;6.23;;
13785;SDS011;47474;48.824;9.384;2023-04-08T14:11:00;6.80;;;6.07;;
13785;SDS011;47474;48.824;9.384;2023-04-08T14:13:27;6.20;;;5.47;;
13785;SDS011;47474;48.824;9.384;2023-04-08T14:15:53;6.60;;;5.93;;
13785;SDS011;47474;48.824;9.384;2023-04-08T14:18:22;6.27;;;5.43;;
13785;SDS011;47474;48.824;9.384;2023-04-08T14:20:48;6.97;;;5.60;;
13785;SDS011;47474;48.824;9.384;2023-04-08T14:23:16;5.93;;;5.23;;
13785;SDS011;47474;48.824;9.384;2023-04-08T14:25:43;7.03;;;5.30;;
13785;SDS011;47474;48.824;9.384;2023-04-08T14:28:09;6.50;;;5.33;;
13785;SDS011;47474;48.824;9.384;2023-04-08T14:30:36;5.07;;;4.57;;
13785;SDS011;47474;48.824;9.384;2023-04-08T14:33:02;6.57;;;5.20;;
13785;SDS011;47474;48.824;9.384;2023-04-08T14:35:30;5.17;;;4.43;;
13785;SDS011;47474;48.824;9.384;2023-04-08T14:37:56;5.40;;;4.73;;
13785;SDS011;47474;48.824;9.384;2023-04-08T14:40:24;5.23;;;4.73;;
13785;SDS011;47474;48.824;9.384;2023-04-08T14:42:51;5.83;;;4.00;;
13785;SDS011;47474;48.824;9.384;2023-04-08T14:45:17;4.90;;;4.23;;
13785;SDS011;47474;48.824;9.384;2023-04-08T14:47:44;5.77;;;4.80;;
13785;SDS011;47474;48.824;9.384;2023-04-08T14:50:11;4.77;;;4.23;;
13785;SDS011;47474;48.824;9.384;2023-04-08T14:52:37;4.53;;;4.00;;
13785;SDS011;47474;48.824;9.384;2023-04-08T14:55:04;4.53;;;3.97;;
13785;SDS011;47474;48.824;9.384;2023-04-08T14:57:32;4.60;;;4.03;;
13785;SDS011;47474;48.824;9.384;2023-04-08T14:59:59;4.50;;;4.07;;
13785;SDS011;47474;48.824;9.384;2023-04-08T15:02:25;4.23;;;3.83;;